createdAt,value
2018-08-20T00:00:15.405Z,78.79
2018-08-20T00:01:15.382Z,78.29
2018-08-20T00:02:15.487Z,79.09
2018-08-20T00:03:15.403Z,78.89
2018-08-20T00:04:15.420Z,78.49
2018-08-20T00:05:15.371Z,78.29
2018-08-20T00:06:15.439Z,78.59
2018-08-20T00:07:15.376Z,77.59
2018-08-20T00:08:15.294Z,77.55
2018-08-20T00:09:15.282Z,77.25
2018-08-20T00:10:15.283Z,77.05
2018-08-20T00:11:15.261Z,77.65
2018-08-20T00:12:15.268Z,77.25
2018-08-20T00:13:15.236Z,78.66
2018-08-20T00:14:15.242Z,76.95
2018-08-20T00:15:15.220Z,77.55
2018-08-20T00:16:15.202Z,76.85
2018-08-20T00:17:15.222Z,77.25
2018-08-20T00:18:15.183Z,77.25
2018-08-20T00:19:15.169Z,77.15
2018-08-20T00:20:15.193Z,77.65
2018-08-20T00:21:15.158Z,77.25
2018-08-20T00:22:15.169Z,77.45
2018-08-20T00:23:15.135Z,76.65
2018-08-20T00:24:15.116Z,76.75
2018-08-20T00:25:15.119Z,76.75
2018-08-20T00:26:15.096Z,76.65
2018-08-20T00:27:15.083Z,76.54
2018-08-20T00:28:15.098Z,76.75
2018-08-20T00:29:15.067Z,76.45
2018-08-20T00:30:15.059Z,76.54
2018-08-20T00:31:15.052Z,76.75
2018-08-20T00:32:15.042Z,77.05
2018-08-20T00:33:15.050Z,76.71
2018-08-20T00:34:15.014Z,76.65
2018-08-20T00:35:15.005Z,76.71
2018-08-20T00:36:14.986Z,76.61
2018-08-20T00:37:14.977Z,76.75
2018-08-20T00:38:14.966Z,76.61
2018-08-20T00:39:14.973Z,76.54
2018-08-20T00:40:14.960Z,76.71
2018-08-20T00:41:14.944Z,77.25
2018-08-20T00:42:14.962Z,76.65
2018-08-20T00:43:14.917Z,76.54
2018-08-20T00:44:14.919Z,76.54
2018-08-20T00:45:14.895Z,78.35
2018-08-20T00:46:14.882Z,76.65
2018-08-20T00:47:14.931Z,76.45
2018-08-20T00:48:14.865Z,76.85
2018-08-20T00:49:14.966Z,76.75
2018-08-20T00:50:14.838Z,76.65
2018-08-20T00:51:14.882Z,76.65
2018-08-20T00:52:14.820Z,77.15
2018-08-20T00:53:14.809Z,76.75
2018-08-20T00:54:14.824Z,77.25
2018-08-20T00:55:14.799Z,77.25
2018-08-20T00:56:14.772Z,76.85
2018-08-20T00:57:14.761Z,76.65
2018-08-20T00:58:14.751Z,77.25
2018-08-20T00:59:14.738Z,77.15
2018-08-20T01:00:14.757Z,76.54
2018-08-20T01:01:14.723Z,76.85
2018-08-20T01:02:14.716Z,76.95
2018-08-20T01:03:14.711Z,76.65
2018-08-20T01:04:14.689Z,76.65
2018-08-20T01:05:14.721Z,76.65
2018-08-20T01:06:14.663Z,76.65
2018-08-20T01:07:14.655Z,77.25
2018-08-20T01:08:14.653Z,76.65
2018-08-20T01:09:14.634Z,76.85
2018-08-20T01:10:14.622Z,76.95
2018-08-20T01:11:14.647Z,77.25
2018-08-20T01:12:14.621Z,77.15
2018-08-20T01:13:14.588Z,77.55
2018-08-20T01:14:14.577Z,77.55
2018-08-20T01:15:14.569Z,78.15
2018-08-20T01:16:14.601Z,78.45
2018-08-20T01:17:14.551Z,78.35
2018-08-20T01:18:14.561Z,78.15
2018-08-20T01:19:14.525Z,78.55
2018-08-20T01:20:14.533Z,78.29
2018-08-20T01:21:14.536Z,78.49
2018-08-20T01:22:14.499Z,79.05
2018-08-20T01:23:14.484Z,78.96
2018-08-20T01:24:14.473Z,78.09
2018-08-20T01:25:14.462Z,78.75
2018-08-20T01:26:14.470Z,78.49
2018-08-20T01:27:14.460Z,78.75
2018-08-20T01:28:14.445Z,78.85
2018-08-20T01:29:14.422Z,80.06
2018-08-20T01:30:14.417Z,78.79
2018-08-20T01:31:14.398Z,78.39
2018-08-20T01:32:14.405Z,79.49
2018-08-20T01:33:14.374Z,79.39
2018-08-20T01:34:14.369Z,79.49
2018-08-20T01:35:14.360Z,79.49
2018-08-20T01:36:14.352Z,79.90
2018-08-20T01:37:14.348Z,79.99
2018-08-20T01:38:14.398Z,79.49
2018-08-20T01:39:14.339Z,79.90
2018-08-20T01:40:14.414Z,80.40
2018-08-20T01:41:14.303Z,79.99
2018-08-20T01:42:14.388Z,80.10
2018-08-20T01:43:14.270Z,79.83
2018-08-20T01:44:14.256Z,80.60
2018-08-20T01:45:14.244Z,80.63
2018-08-20T01:46:14.233Z,80.33
2018-08-20T01:47:14.225Z,80.43
2018-08-20T01:48:14.238Z,81.14
2018-08-20T01:49:14.208Z,81.10
2018-08-20T01:50:14.191Z,80.54
2018-08-20T01:51:14.182Z,80.60
2018-08-20T01:52:14.174Z,80.63
2018-08-20T01:53:14.193Z,80.83
2018-08-20T01:54:14.154Z,80.83
2018-08-20T01:55:14.142Z,80.54
2018-08-20T01:56:14.152Z,80.83
2018-08-20T01:57:14.115Z,81.04
2018-08-20T01:58:14.127Z,81.04
2018-08-20T01:59:14.133Z,81.10
2018-08-20T02:00:14.100Z,81.50
2018-08-20T02:01:14.071Z,80.94
2018-08-20T02:02:14.064Z,81.14
2018-08-20T02:03:14.052Z,81.04
2018-08-20T02:04:14.085Z,82.14
2018-08-20T02:05:14.034Z,81.84
2018-08-20T02:06:14.034Z,81.14
2018-08-20T02:07:14.059Z,81.64
2018-08-20T02:08:13.998Z,81.84
2018-08-20T02:09:14.010Z,81.54
2018-08-20T02:10:13.979Z,81.44
2018-08-20T02:11:13.969Z,81.48
2018-08-20T02:12:13.955Z,81.74
2018-08-20T02:13:13.942Z,81.94
2018-08-20T02:14:13.957Z,81.54
2018-08-20T02:15:13.935Z,81.78
2018-08-20T02:16:13.914Z,81.94
2018-08-20T02:17:13.944Z,81.54
2018-08-20T02:18:13.894Z,82.14
2018-08-20T02:19:13.902Z,81.84
2018-08-20T02:20:13.873Z,81.94
2018-08-20T02:21:13.866Z,82.04
2018-08-20T02:22:13.850Z,82.38
2018-08-20T02:23:13.842Z,81.98
2018-08-20T02:24:13.877Z,82.45
2018-08-20T02:25:13.855Z,82.89
2018-08-20T02:26:13.803Z,82.18
2018-08-20T02:27:13.832Z,82.08
2018-08-20T02:28:13.785Z,82.78
2018-08-20T02:29:13.796Z,82.28
2018-08-20T02:30:13.766Z,82.28
2018-08-20T02:31:13.756Z,82.68
2018-08-20T02:32:13.746Z,83.09
2018-08-20T02:33:13.727Z,82.89
2018-08-20T02:34:13.740Z,82.38
2018-08-20T02:35:13.707Z,82.89
2018-08-20T02:36:13.710Z,82.98
2018-08-20T02:37:13.689Z,82.75
2018-08-20T02:38:13.673Z,82.78
2018-08-20T02:39:13.694Z,83.09
2018-08-20T02:40:13.655Z,83.29
2018-08-20T02:41:13.647Z,82.89
2018-08-20T02:42:13.639Z,82.98
2018-08-20T02:43:13.623Z,82.68
2018-08-20T02:44:13.627Z,82.89
2018-08-20T02:45:13.649Z,83.15
2018-08-20T02:46:13.586Z,82.78
2018-08-20T02:47:13.576Z,83.99
2018-08-20T02:48:13.571Z,82.89
2018-08-20T02:49:13.560Z,83.29
2018-08-20T02:50:13.566Z,83.49
2018-08-20T02:51:13.536Z,83.49
2018-08-20T02:52:13.524Z,83.69
2018-08-20T02:53:13.512Z,83.69
2018-08-20T02:54:13.505Z,83.39
2018-08-20T02:55:13.513Z,83.49
2018-08-20T02:56:13.479Z,83.59
2018-08-20T02:57:13.487Z,83.29
2018-08-20T02:58:13.455Z,83.29
2018-08-20T02:59:13.448Z,83.69
2018-08-20T03:00:13.461Z,83.69
2018-08-20T03:01:13.431Z,84.19
2018-08-20T03:02:13.439Z,84.29
2018-08-20T03:03:13.410Z,83.39
2018-08-20T03:04:13.392Z,83.79
2018-08-20T03:05:13.405Z,83.39
2018-08-20T03:06:13.368Z,83.99
2018-08-20T03:07:13.359Z,84.63
2018-08-20T03:08:13.367Z,84.19
2018-08-20T03:09:13.342Z,84.59
2018-08-20T03:10:13.430Z,83.09
2018-08-20T03:11:13.316Z,84.09
2018-08-20T03:12:13.382Z,83.59
2018-08-20T03:13:13.299Z,84.59
2018-08-20T03:14:13.416Z,84.09
2018-08-20T03:15:13.308Z,84.29
2018-08-20T03:16:13.264Z,83.59
2018-08-20T03:17:13.248Z,84.33
2018-08-20T03:18:13.239Z,83.43
2018-08-20T03:19:13.230Z,83.59
2018-08-20T03:20:13.242Z,82.98
2018-08-20T03:21:13.215Z,83.12
2018-08-20T03:22:13.223Z,82.98
2018-08-20T03:23:13.190Z,82.72
2018-08-20T03:24:13.177Z,83.09
2018-08-20T03:25:13.180Z,82.98
2018-08-20T03:26:13.161Z,83.18
2018-08-20T03:27:13.145Z,83.33
2018-08-20T03:28:13.141Z,83.29
2018-08-20T03:29:13.123Z,82.89
2018-08-20T03:30:13.136Z,83.53
2018-08-20T03:31:13.099Z,83.69
2018-08-20T03:32:13.091Z,83.18
2018-08-20T03:33:13.116Z,84.19
2018-08-20T03:34:13.066Z,83.49
2018-08-20T03:35:13.087Z,83.73
2018-08-20T03:36:13.107Z,83.73
2018-08-20T03:37:13.041Z,84.33
2018-08-20T03:38:13.029Z,84.19
2018-08-20T03:39:13.017Z,84.33
2018-08-20T03:40:13.002Z,84.23
2018-08-20T03:41:13.009Z,83.79
2018-08-20T03:42:12.999Z,83.63
2018-08-20T03:43:12.993Z,84.13
2018-08-20T03:44:12.963Z,83.93
2018-08-20T03:45:12.943Z,84.43
2018-08-20T03:46:12.951Z,83.83
2018-08-20T03:47:12.926Z,84.03
2018-08-20T03:48:12.921Z,84.53
2018-08-20T03:49:12.915Z,83.83
2018-08-20T03:50:12.895Z,83.83
2018-08-20T03:51:12.917Z,84.43
2018-08-20T03:52:12.891Z,84.53
2018-08-20T03:53:12.857Z,84.13
2018-08-20T03:54:12.845Z,84.53
2018-08-20T03:55:12.866Z,84.33
2018-08-20T03:56:12.847Z,84.53
2018-08-20T03:57:12.858Z,84.33
2018-08-20T03:58:12.801Z,84.63
2018-08-20T03:59:12.869Z,84.53
2018-08-20T04:00:12.803Z,85.03
2018-08-20T04:01:12.895Z,84.53
2018-08-20T04:02:12.763Z,84.23
2018-08-20T04:03:12.756Z,84.77
2018-08-20T04:04:12.738Z,85.33
2018-08-20T04:05:12.724Z,85.08
2018-08-20T04:06:12.738Z,85.17
2018-08-20T04:07:12.732Z,85.28
2018-08-20T04:08:12.703Z,84.37
2018-08-20T04:09:12.688Z,84.17
2018-08-20T04:10:12.684Z,84.94
2018-08-20T04:11:12.688Z,85.28
2018-08-20T04:12:12.651Z,84.97
2018-08-20T04:13:12.636Z,85.08
2018-08-20T04:14:12.632Z,85.08
2018-08-20T04:15:12.619Z,85.17
2018-08-20T04:16:12.649Z,85.08
2018-08-20T04:17:12.605Z,84.88
2018-08-20T04:18:12.581Z,84.77
2018-08-20T04:19:12.573Z,85.28
2018-08-20T04:20:14.033Z,85.17
2018-08-20T04:21:12.574Z,85.17
2018-08-20T04:22:12.611Z,85.28
2018-08-20T04:23:12.539Z,84.88
2018-08-20T04:24:12.526Z,85.28
2018-08-20T04:25:13.212Z,85.08
2018-08-20T04:26:12.665Z,85.17
2018-08-20T04:27:12.627Z,84.17
2018-08-20T04:28:13.484Z,84.27
2018-08-20T04:29:12.665Z,84.37
2018-08-20T04:30:12.597Z,84.37
2018-08-20T04:31:12.659Z,84.57
2018-08-20T04:32:12.433Z,84.67
2018-08-20T04:33:12.425Z,84.27
2018-08-20T04:34:12.855Z,84.47
2018-08-20T04:35:12.427Z,85.17
2018-08-20T04:36:12.422Z,84.37
2018-08-20T04:37:12.372Z,84.67
2018-08-20T04:38:12.371Z,84.07
2018-08-20T04:39:12.354Z,84.07
2018-08-20T04:40:12.345Z,84.07
2018-08-20T04:41:12.377Z,84.27
2018-08-20T04:42:12.919Z,84.51
2018-08-20T04:43:12.323Z,83.87
2018-08-20T04:44:12.301Z,83.67
2018-08-20T04:45:12.306Z,84.17
2018-08-20T04:46:12.282Z,84.37
2018-08-20T04:47:12.353Z,84.07
2018-08-20T04:48:12.348Z,84.27
2018-08-20T04:49:12.295Z,84.37
2018-08-20T04:50:12.755Z,84.51
2018-08-20T04:51:12.578Z,84.37
2018-08-20T04:52:12.230Z,84.31
2018-08-20T04:53:12.216Z,84.41
2018-08-20T04:54:12.279Z,84.51
2018-08-20T04:55:12.177Z,84.11
2018-08-20T04:56:12.464Z,84.61
2018-08-20T04:57:12.174Z,84.31
2018-08-20T04:58:12.195Z,85.42
2018-08-20T04:59:12.196Z,85.42
2018-08-20T05:00:12.122Z,85.42
2018-08-20T05:01:12.114Z,84.51
2018-08-20T05:02:12.154Z,84.71
2018-08-20T05:03:12.528Z,84.91
2018-08-20T05:04:12.116Z,84.51
2018-08-20T05:05:12.094Z,84.81
2018-08-20T05:06:12.071Z,85.42
2018-08-20T05:07:12.182Z,85.31
2018-08-20T05:08:12.158Z,84.31
2018-08-20T05:09:12.090Z,84.57
2018-08-20T05:10:12.013Z,85.11
2018-08-20T05:11:12.011Z,85.22
2018-08-20T05:12:12.300Z,84.71
2018-08-20T05:13:12.034Z,85.11
2018-08-20T05:14:12.091Z,85.17
2018-08-20T05:15:12.137Z,85.52
2018-08-20T05:16:12.191Z,85.72
2018-08-20T05:17:12.047Z,84.47
2018-08-20T05:18:11.931Z,84.97
2018-08-20T05:19:11.924Z,84.57
2018-08-20T05:20:11.902Z,84.57
2018-08-20T05:21:11.894Z,85.38
2018-08-20T05:22:11.935Z,84.37
2018-08-20T05:23:11.892Z,84.97
2018-08-20T05:24:12.270Z,85.17
2018-08-20T05:25:11.925Z,84.97
2018-08-20T05:26:11.845Z,84.67
2018-08-20T05:27:11.882Z,84.57
2018-08-20T05:28:12.094Z,84.57
2018-08-20T05:29:11.874Z,84.37
2018-08-20T05:30:11.884Z,84.57
2018-08-20T05:31:11.890Z,84.57
2018-08-20T05:32:11.899Z,84.47
2018-08-20T05:33:11.783Z,84.47
2018-08-20T05:34:11.752Z,83.97
2018-08-20T05:35:11.763Z,84.31
2018-08-20T05:36:11.773Z,84.21
2018-08-20T05:37:11.739Z,84.57
2018-08-20T05:38:11.709Z,84.97
2018-08-20T05:39:11.704Z,84.77
2018-08-20T05:40:11.702Z,84.37
2018-08-20T05:41:11.698Z,84.07
2018-08-20T05:42:11.704Z,84.17
2018-08-20T05:43:11.724Z,83.67
2018-08-20T05:44:11.642Z,84.67
2018-08-20T05:45:11.650Z,84.37
2018-08-20T05:46:11.663Z,85.17
2018-08-20T05:47:11.668Z,84.37
2018-08-20T05:48:11.594Z,84.07
2018-08-20T05:49:11.618Z,83.87
2018-08-20T05:50:11.618Z,83.76
2018-08-20T05:51:11.571Z,84.57
2018-08-20T05:52:11.631Z,85.17
2018-08-20T05:53:11.553Z,85.28
2018-08-20T05:54:11.572Z,85.08
2018-08-20T05:55:11.517Z,84.47
2018-08-20T05:56:11.512Z,84.67
2018-08-20T05:57:11.586Z,84.17
2018-08-20T05:58:11.572Z,83.97
2018-08-20T05:59:11.565Z,84.77
2018-08-20T06:00:11.616Z,84.07
2018-08-20T06:01:11.544Z,84.27
2018-08-20T06:02:11.632Z,84.47
2018-08-20T06:03:11.573Z,84.17
2018-08-20T06:04:11.662Z,84.07
2018-08-20T06:05:11.410Z,84.37
2018-08-20T06:06:11.401Z,84.13
2018-08-20T06:07:11.396Z,83.76
2018-08-20T06:08:11.401Z,84.77
2018-08-20T06:09:11.368Z,84.03
2018-08-20T06:10:11.365Z,84.43
2018-08-20T06:11:11.344Z,84.74
2018-08-20T06:12:11.356Z,83.53
2018-08-20T06:13:11.376Z,83.93
2018-08-20T06:14:11.318Z,84.13
2018-08-20T06:15:11.370Z,84.33
2018-08-20T06:16:11.293Z,84.43
2018-08-20T06:17:11.283Z,83.83
2018-08-20T06:18:11.287Z,83.33
2018-08-20T06:19:11.314Z,83.73
2018-08-20T06:20:11.244Z,83.83
2018-08-20T06:21:11.235Z,84.43
2018-08-20T06:22:11.226Z,84.23
2018-08-20T06:23:11.236Z,84.13
2018-08-20T06:24:11.200Z,84.63
2018-08-20T06:25:11.251Z,84.23
2018-08-20T06:26:11.256Z,84.23
2018-08-20T06:27:11.207Z,84.39
2018-08-20T06:28:11.207Z,84.03
2018-08-20T06:29:11.168Z,84.23
2018-08-20T06:30:11.145Z,85.14
2018-08-20T06:31:11.160Z,86.24
2018-08-20T06:32:11.168Z,85.33
2018-08-20T06:33:11.167Z,85.84
2018-08-20T06:34:11.089Z,85.24
2018-08-20T06:35:11.087Z,86.65
2018-08-20T06:36:11.072Z,84.83
2018-08-20T06:37:11.070Z,85.19
2018-08-20T06:38:11.100Z,86.24
2018-08-20T06:39:11.074Z,85.94
2018-08-20T06:40:11.032Z,85.14
2018-08-20T06:41:11.898Z,86.54
2018-08-20T06:42:11.102Z,85.94
2018-08-20T06:43:11.150Z,86.24
2018-08-20T06:44:11.046Z,86.94
2018-08-20T06:45:11.099Z,87.75
2018-08-20T06:46:11.109Z,87.95
2018-08-20T06:47:11.115Z,88.39
2018-08-20T06:48:11.698Z,88.09
2018-08-20T06:49:11.099Z,88.29
2018-08-20T06:50:11.146Z,88.34
2018-08-20T06:51:10.918Z,89.75
2018-08-20T06:52:10.899Z,90.05
2018-08-20T06:53:10.914Z,90.59
2018-08-20T06:54:10.921Z,90.69
2018-08-20T06:55:10.891Z,90.19
2018-08-20T06:56:10.872Z,91.09
2018-08-20T06:57:10.841Z,90.89
2018-08-20T06:58:10.837Z,92.00
2018-08-20T06:59:10.854Z,93.51
2018-08-20T07:00:10.833Z,93.21
2018-08-20T07:01:10.852Z,93.35
2018-08-20T07:02:10.861Z,93.55
2018-08-20T07:03:10.781Z,93.66
2018-08-20T07:04:10.785Z,94.26
2018-08-20T07:05:10.827Z,95.17
2018-08-20T07:06:10.815Z,95.81
2018-08-20T07:07:10.738Z,95.81
2018-08-20T07:08:10.742Z,96.52
2018-08-20T07:09:10.738Z,96.42
2018-08-20T07:10:10.721Z,96.47
2018-08-20T07:11:10.690Z,97.03
2018-08-20T07:12:10.708Z,96.16
2018-08-20T07:13:11.738Z,96.06
2018-08-20T07:14:11.676Z,97.17
2018-08-20T07:15:10.733Z,97.78
2018-08-20T07:16:10.638Z,97.47
2018-08-20T07:17:10.650Z,97.67
2018-08-20T07:18:10.622Z,98.08
2018-08-20T07:19:32.628Z,97.17
2018-08-20T07:20:12.136Z,97.78
2018-08-20T07:21:18.164Z,98.08
2018-08-20T07:22:12.785Z,97.78
2018-08-20T07:23:13.100Z,98.08
2018-08-20T07:24:10.547Z,97.78
2018-08-20T07:25:13.328Z,97.78
2018-08-20T07:26:10.852Z,98.08
2018-08-20T07:27:31.773Z,97.78
2018-08-20T07:28:32.193Z,98.58
2018-08-20T07:29:31.681Z,98.68
2018-08-20T07:30:16.362Z,98.38
2018-08-20T07:31:12.141Z,98.38
2018-08-20T07:32:17.458Z,99.08
2018-08-20T07:33:11.740Z,98.68
2018-08-20T07:34:10.729Z,98.68
2018-08-20T07:35:10.847Z,98.48
2018-08-20T07:36:11.190Z,98.88
2018-08-20T07:37:10.574Z,98.99
2018-08-20T07:38:10.544Z,98.88
2018-08-20T07:39:10.396Z,99.34
2018-08-20T07:40:10.405Z,98.74
2018-08-20T07:41:11.137Z,98.74
2018-08-20T07:42:11.134Z,98.13
2018-08-20T07:43:11.091Z,98.19
2018-08-20T07:44:10.409Z,98.79
2018-08-20T07:45:10.432Z,98.69
2018-08-20T07:46:10.338Z,97.89
2018-08-20T07:47:10.383Z,97.78
2018-08-20T07:48:10.300Z,97.53
2018-08-20T07:49:10.295Z,97.94
2018-08-20T07:50:10.287Z,97.33
2018-08-20T07:51:10.307Z,97.44
2018-08-20T07:52:10.245Z,98.14
2018-08-20T07:53:10.239Z,97.79
2018-08-20T07:54:10.225Z,97.69
2018-08-20T07:55:10.217Z,97.49
2018-08-20T07:56:10.220Z,98.05
2018-08-20T07:57:10.229Z,97.44
2018-08-20T07:58:10.241Z,96.94
2018-08-20T07:59:10.167Z,96.94
2018-08-20T08:00:10.191Z,96.24
2018-08-20T08:01:10.852Z,95.98
2018-08-20T08:02:10.153Z,95.88
2018-08-20T08:03:10.187Z,96.19
2018-08-20T08:04:10.141Z,96.74
2018-08-20T08:05:10.105Z,97.14
2018-08-20T08:06:16.943Z,96.54
2018-08-20T08:07:10.111Z,96.54
2018-08-20T08:08:17.605Z,95.94
2018-08-20T08:09:34.199Z,95.43
2018-08-20T08:10:16.548Z,96.80
2018-08-20T08:11:27.691Z,95.39
2018-08-20T08:12:11.130Z,95.39
2018-08-20T08:13:12.427Z,95.79
2018-08-20T08:14:29.086Z,96.19
2018-08-20T08:15:11.099Z,96.15
2018-08-20T08:17:19.918Z,93.63
2018-08-20T08:18:19.897Z,94.84
2018-08-20T08:19:19.892Z,93.89
2018-08-20T08:20:20.652Z,93.79
2018-08-20T08:21:23.025Z,94.59
2018-08-20T08:22:36.637Z,92.63
2018-08-20T08:23:19.930Z,92.89
2018-08-20T08:24:33.378Z,92.73
2018-08-20T08:25:21.839Z,94.18
2018-08-20T08:26:20.057Z,93.28
2018-08-20T08:27:20.202Z,95.59
2018-08-20T08:28:28.134Z,93.88
2018-08-20T08:29:40.846Z,94.33
2018-08-20T08:30:19.783Z,94.43
2018-08-20T08:31:19.813Z,95.64
2018-08-20T08:32:23.158Z,95.68
2018-08-20T08:33:20.413Z,95.73
2018-08-20T08:34:23.794Z,95.94
2018-08-20T08:35:26.788Z,95.53
2018-08-20T08:36:19.774Z,95.53
2018-08-20T08:38:20.735Z,95.73
2018-08-20T08:39:23.002Z,94.73
2018-08-20T08:40:26.713Z,95.64
2018-08-20T08:41:19.700Z,95.28
2018-08-20T08:42:29.345Z,96.19
2018-08-20T08:43:21.214Z,95.94
2018-08-20T08:44:19.640Z,95.18
2018-08-20T08:45:22.213Z,96.08
2018-08-20T08:46:19.660Z,96.24
2018-08-20T08:47:22.699Z,95.64
2018-08-20T08:48:19.672Z,95.64
2018-08-20T08:49:19.576Z,95.68
2018-08-20T08:50:19.642Z,95.38
2018-08-20T08:51:19.565Z,95.78
2018-08-20T08:52:19.563Z,96.69
2018-08-20T08:53:21.447Z,96.19
2018-08-20T08:54:20.736Z,96.44
2018-08-20T08:55:19.521Z,96.94
2018-08-20T08:56:27.834Z,96.24
2018-08-20T08:57:19.780Z,94.63
2018-08-20T08:58:20.547Z,94.83
2018-08-20T08:59:19.499Z,94.53
2018-08-20T09:00:19.600Z,95.33
2018-08-20T09:01:19.445Z,95.23
2018-08-20T09:02:19.532Z,95.13
2018-08-20T09:03:19.428Z,94.43
2018-08-20T09:04:20.032Z,95.64
2018-08-20T09:05:19.519Z,94.43
2018-08-20T09:06:19.386Z,95.84
2018-08-20T09:07:19.415Z,95.64
2018-08-20T09:08:21.757Z,94.02
2018-08-20T09:09:20.152Z,94.63
2018-08-20T09:10:20.555Z,94.73
2018-08-20T09:11:20.882Z,95.38
2018-08-20T09:12:20.149Z,94.93
2018-08-20T09:13:19.530Z,95.13
2018-08-20T09:14:19.635Z,94.93
2018-08-20T09:15:19.620Z,95.03
2018-08-20T09:16:20.097Z,95.03
2018-08-20T09:17:19.713Z,94.63
2018-08-20T09:18:23.587Z,94.53
2018-08-20T09:19:19.773Z,95.73
2018-08-20T09:20:19.237Z,95.13
2018-08-20T09:21:19.270Z,95.33
2018-08-20T09:22:19.238Z,95.23
2018-08-20T09:23:19.337Z,95.09
2018-08-20T09:24:23.008Z,94.79
2018-08-20T09:25:22.195Z,93.88
2018-08-20T09:26:19.182Z,95.29
2018-08-20T09:27:19.746Z,93.18
2018-08-20T09:28:25.111Z,93.68
2018-08-20T09:29:25.719Z,95.09
2018-08-20T09:30:19.158Z,95.18
2018-08-20T09:31:19.145Z,94.89
2018-08-20T09:32:19.198Z,94.74
2018-08-20T09:33:22.194Z,94.38
2018-08-20T09:34:19.156Z,94.28
2018-08-20T09:35:23.895Z,94.84
2018-08-20T09:36:19.078Z,93.54
2018-08-20T09:37:33.883Z,94.54
2018-08-20T09:38:19.287Z,94.64
2018-08-20T09:39:22.094Z,94.18
2018-08-20T09:40:19.110Z,95.14
2018-08-20T09:41:19.043Z,94.84
2018-08-20T09:42:19.195Z,93.68
2018-08-20T09:43:19.261Z,93.93
2018-08-20T09:44:18.994Z,93.84
2018-08-20T09:45:18.986Z,94.13
2018-08-20T09:46:18.987Z,94.94
2018-08-20T09:47:18.961Z,93.43
2018-08-20T09:48:19.914Z,93.49
2018-08-20T09:49:19.013Z,92.33
2018-08-20T09:50:18.938Z,92.93
2018-08-20T09:51:18.917Z,93.29
2018-08-20T09:52:20.108Z,93.19
2018-08-20T09:53:19.963Z,92.69
2018-08-20T09:54:20.122Z,92.58
2018-08-20T09:55:19.951Z,91.48
2018-08-20T09:56:18.986Z,92.38
2018-08-20T09:57:19.638Z,92.29
2018-08-20T09:58:19.601Z,91.99
2018-08-20T09:59:19.178Z,92.58
2018-08-20T10:00:19.180Z,91.88
2018-08-20T10:01:19.315Z,93.09
2018-08-20T10:02:18.784Z,92.99
2018-08-20T10:03:19.642Z,92.18
2018-08-20T10:04:19.640Z,92.18
2018-08-20T10:05:18.796Z,92.18
2018-08-20T10:06:18.749Z,91.38
2018-08-20T10:07:18.758Z,92.29
2018-08-20T10:08:18.728Z,94.20
2018-08-20T10:09:18.739Z,93.09
2018-08-20T10:10:18.704Z,93.24
2018-08-20T10:11:18.757Z,91.34
2018-08-20T10:12:20.165Z,92.00
2018-08-20T10:13:18.688Z,90.09
2018-08-20T10:14:18.739Z,90.89
2018-08-20T10:15:18.683Z,91.09
2018-08-20T10:16:23.076Z,92.20
2018-08-20T10:17:18.714Z,90.05
2018-08-20T10:18:18.646Z,90.55
2018-08-20T10:19:18.669Z,89.61
2018-08-20T10:20:18.630Z,89.61
2018-08-20T10:21:18.652Z,87.96
2018-08-20T10:22:18.572Z,87.16
2018-08-20T10:23:18.569Z,88.96
2018-08-20T10:24:18.626Z,89.52
2018-08-20T10:25:22.820Z,86.52
2018-08-20T10:26:18.627Z,87.12
2018-08-20T10:27:18.539Z,87.07
2018-08-20T10:28:33.192Z,85.91
2018-08-20T10:29:18.563Z,85.77
2018-08-20T10:30:18.514Z,86.37
2018-08-20T10:31:23.095Z,87.39
2018-08-20T10:32:18.499Z,83.93
2018-08-20T10:33:18.464Z,86.39
2018-08-20T10:34:18.536Z,85.89
2018-08-20T10:35:18.502Z,85.99
2018-08-20T10:36:22.672Z,83.95
2018-08-20T10:37:18.444Z,83.85
2018-08-20T10:38:20.558Z,83.71
2018-08-20T10:39:18.865Z,83.81
2018-08-20T10:40:18.632Z,83.67
2018-08-20T10:41:18.484Z,81.67
2018-08-20T10:42:18.492Z,79.48
2018-08-20T10:43:19.588Z,81.48
2018-08-20T10:44:18.460Z,80.98
2018-08-20T10:45:18.644Z,79.58
2018-08-20T10:46:18.872Z,81.27
2018-08-20T10:47:18.833Z,80.88
2018-08-20T10:48:19.094Z,81.63
2018-08-20T10:49:18.510Z,80.94
2018-08-20T10:50:18.561Z,81.24
2018-08-20T10:51:18.289Z,80.24
2018-08-20T10:52:18.263Z,80.44
2018-08-20T10:53:18.326Z,81.43
2018-08-20T10:54:18.504Z,81.10
2018-08-20T10:55:18.319Z,79.10
2018-08-20T10:56:18.341Z,79.36
2018-08-20T10:57:18.330Z,76.71
2018-08-20T10:58:18.262Z,78.50
2018-08-20T10:59:18.257Z,80.30
2018-08-20T11:00:18.239Z,79.70
2018-08-20T11:01:18.469Z,78.56
2018-08-20T11:02:19.600Z,80.86
2018-08-20T11:03:18.177Z,78.00
2018-08-20T11:04:19.251Z,78.70
2018-08-20T11:05:18.812Z,78.67
2018-08-20T11:06:19.295Z,78.77
2018-08-20T11:07:18.807Z,76.97
2018-08-20T11:08:18.124Z,77.57
2018-08-20T11:09:18.134Z,78.20
2018-08-20T11:10:18.127Z,78.17
2018-08-20T11:11:18.166Z,76.00
2018-08-20T11:12:18.092Z,74.11
2018-08-20T11:13:18.281Z,75.50
2018-08-20T11:14:18.022Z,76.20
2018-08-20T11:15:18.039Z,76.26
2018-08-20T11:16:21.619Z,73.94
2018-08-20T11:17:18.060Z,76.09
2018-08-20T11:18:18.082Z,73.11
2018-08-20T11:19:18.128Z,74.10
2018-08-20T11:20:18.032Z,75.65
2018-08-20T11:21:18.072Z,73.07
2018-08-20T11:22:17.957Z,69.96
2018-08-20T11:23:17.927Z,71.28
2018-08-20T11:24:17.949Z,71.15
2018-08-20T11:25:17.965Z,70.75
2018-08-20T11:26:17.924Z,70.75
2018-08-20T11:27:18.628Z,71.34
2018-08-20T11:28:19.777Z,69.53
2018-08-20T11:29:17.966Z,72.51
2018-08-20T11:30:18.661Z,71.64
2018-08-20T11:31:18.272Z,71.05
2018-08-20T11:32:17.877Z,70.92
2018-08-20T11:33:18.074Z,72.11
2018-08-20T11:34:18.169Z,70.42
2018-08-20T11:35:18.047Z,69.72
2018-08-20T11:36:17.952Z,70.98
2018-08-20T11:37:18.393Z,69.76
2018-08-20T11:38:17.779Z,70.45
2018-08-20T11:39:17.767Z,70.52
2018-08-20T11:40:18.039Z,70.22
2018-08-20T11:41:17.794Z,68.27
2018-08-20T11:42:17.739Z,70.42
2018-08-20T11:43:17.818Z,70.45
2018-08-20T11:44:17.797Z,69.43
2018-08-20T11:45:17.716Z,68.83
2018-08-20T11:46:17.738Z,69.53
2018-08-20T11:47:17.677Z,68.46
2018-08-20T11:48:17.673Z,69.76
2018-08-20T11:49:17.786Z,67.47
2018-08-20T11:50:17.646Z,67.83
2018-08-20T11:51:17.743Z,69.46
2018-08-20T11:52:17.742Z,66.25
2018-08-20T11:53:17.632Z,66.94
2018-08-20T11:54:17.613Z,67.34
2018-08-20T11:55:17.630Z,69.36
2018-08-20T11:56:17.799Z,67.37
2018-08-20T11:57:17.763Z,69.56
2018-08-20T11:58:17.565Z,70.09
2018-08-20T11:59:17.564Z,70.09
2018-08-20T12:00:17.578Z,70.29
2018-08-20T12:01:17.534Z,69.43
2018-08-20T12:02:17.552Z,70.12
2018-08-20T12:03:17.520Z,69.46
2018-08-20T12:04:18.226Z,70.39
2018-08-20T12:05:17.492Z,71.45
2018-08-20T12:06:17.509Z,71.65
2018-08-20T12:07:17.660Z,70.45
2018-08-20T12:08:17.484Z,71.48
2018-08-20T12:09:17.460Z,71.09
2018-08-20T12:10:17.451Z,70.59
2018-08-20T12:11:17.426Z,71.48
2018-08-20T12:12:17.508Z,71.98
2018-08-20T12:13:17.435Z,71.58
2018-08-20T12:14:17.421Z,69.69
2018-08-20T12:15:18.102Z,69.09
2018-08-20T12:16:17.383Z,69.69
2018-08-20T12:17:17.424Z,71.58
2018-08-20T12:18:17.371Z,70.68
2018-08-20T12:19:17.388Z,70.79
2018-08-20T12:20:18.149Z,70.29
2018-08-20T12:21:17.483Z,70.79
2018-08-20T12:22:17.402Z,70.49
2018-08-20T12:23:17.444Z,70.82
2018-08-20T12:24:17.290Z,70.12
2018-08-20T12:25:17.281Z,70.03
2018-08-20T12:26:17.611Z,71.12
2018-08-20T12:27:17.677Z,70.22
2018-08-20T12:28:17.333Z,70.22
2018-08-20T12:29:17.246Z,70.86
2018-08-20T12:30:17.257Z,71.25
2018-08-20T12:31:17.221Z,71.65
2018-08-20T12:32:17.246Z,70.32
2018-08-20T12:33:17.204Z,71.42
2018-08-20T12:34:17.294Z,69.23
2018-08-20T12:35:17.182Z,69.23
2018-08-20T12:36:17.191Z,71.62
2018-08-20T12:37:17.156Z,71.22
2018-08-20T12:38:20.535Z,70.86
2018-08-20T12:39:17.190Z,71.05
2018-08-20T12:40:17.324Z,71.55
2018-08-20T12:41:17.707Z,71.59
2018-08-20T12:42:19.145Z,72.49
2018-08-20T12:43:19.015Z,72.81
2018-08-20T12:44:17.150Z,71.59
2018-08-20T12:45:17.071Z,72.38
2018-08-20T12:46:17.113Z,71.72
2018-08-20T12:47:17.236Z,72.55
2018-08-20T12:48:17.110Z,73.05
2018-08-20T12:49:17.214Z,72.75
2018-08-20T12:50:17.614Z,75.05
2018-08-20T12:51:17.020Z,74.55
2018-08-20T12:52:17.063Z,73.15
2018-08-20T12:53:17.025Z,72.55
2018-08-20T12:54:16.974Z,74.38